createdAt,value
2019-03-10T00:02:26.930Z,2.33
2019-03-10T00:04:54.146Z,3.00
2019-03-10T00:07:21.395Z,2.40
2019-03-10T00:09:48.637Z,2.47
2019-03-10T00:12:15.877Z,2.27
2019-03-10T00:14:43.126Z,2.43
2019-03-10T00:17:10.341Z,2.33
2019-03-10T00:19:37.529Z,2.40
2019-03-10T00:22:04.803Z,2.23
2019-03-10T00:24:32.048Z,2.40
2019-03-10T00:26:59.228Z,1.80
2019-03-10T00:29:26.461Z,2.37
2019-03-10T00:31:53.678Z,3.20
2019-03-10T00:34:20.940Z,2.37
2019-03-10T00:36:48.162Z,2.20
2019-03-10T00:39:33.212Z,2.37
2019-03-10T00:42:34.461Z,1.90
2019-03-10T00:45:30.192Z,2.20
2019-03-10T00:48:38.093Z,2.20
2019-03-10T00:51:45.129Z,2.53
2019-03-10T00:54:12.398Z,2.40
2019-03-10T00:56:39.585Z,2.27
2019-03-10T00:59:06.895Z,1.90
2019-03-10T01:01:34.054Z,2.77
2019-03-10T01:04:01.291Z,2.07
2019-03-10T01:06:28.517Z,2.80
2019-03-10T01:08:55.711Z,2.20
2019-03-10T01:11:22.953Z,2.30
2019-03-10T01:13:50.142Z,2.70
2019-03-10T01:16:17.367Z,2.23
2019-03-10T01:18:44.619Z,2.50
2019-03-10T01:21:11.883Z,2.83
2019-03-10T01:23:39.100Z,2.20
2019-03-10T01:26:06.345Z,2.37
2019-03-10T01:28:33.560Z,2.17
2019-03-10T01:31:24.824Z,2.20
2019-03-10T01:34:35.885Z,2.10
2019-03-10T01:37:03.126Z,2.60
2019-03-10T01:39:30.317Z,2.50
2019-03-10T01:41:57.545Z,2.70
2019-03-10T01:44:24.736Z,2.43
2019-03-10T01:46:51.960Z,2.60
2019-03-10T01:49:19.179Z,2.47
2019-03-10T01:51:46.439Z,2.40
2019-03-10T01:54:13.711Z,2.80
2019-03-10T01:56:41.048Z,2.20
2019-03-10T01:59:08.283Z,2.83
2019-03-10T02:01:35.643Z,2.73
2019-03-10T02:04:02.895Z,2.37
2019-03-10T02:06:30.098Z,2.27
2019-03-10T02:08:57.330Z,2.23
2019-03-10T02:11:24.537Z,2.10
2019-03-10T02:13:51.766Z,2.73
2019-03-10T02:16:18.971Z,2.77
2019-03-10T02:18:46.187Z,2.07
2019-03-10T02:21:13.410Z,2.40
2019-03-10T02:23:40.638Z,2.20
2019-03-10T02:26:07.806Z,2.50
2019-03-10T02:28:35.027Z,2.03
2019-03-10T02:31:02.390Z,2.50
2019-03-10T02:33:29.618Z,2.43
2019-03-10T02:35:56.811Z,2.07
2019-03-10T02:38:24.045Z,2.83
2019-03-10T02:40:51.271Z,2.77
2019-03-10T02:43:18.479Z,2.57
2019-03-10T02:45:45.660Z,3.00
2019-03-10T02:48:12.875Z,2.60
2019-03-10T02:50:40.158Z,2.73
2019-03-10T02:53:07.300Z,2.20
2019-03-10T02:55:34.536Z,2.77
2019-03-10T02:58:01.774Z,2.27
2019-03-10T03:00:29.042Z,1.80
2019-03-10T03:02:56.210Z,2.00
2019-03-10T03:05:23.479Z,2.40
2019-03-10T03:07:50.699Z,2.20
2019-03-10T03:10:17.907Z,2.93
2019-03-10T03:12:45.137Z,2.47
2019-03-10T03:15:12.344Z,3.13
2019-03-10T03:17:39.504Z,2.17
2019-03-10T03:20:07.559Z,2.20
2019-03-10T03:22:34.782Z,2.37
2019-03-10T03:25:02.085Z,2.53
2019-03-10T03:27:29.390Z,2.00
2019-03-10T03:29:56.602Z,2.63
2019-03-10T03:32:23.876Z,2.23
2019-03-10T03:34:51.085Z,2.27
2019-03-10T03:37:20.401Z,2.00
2019-03-10T03:39:49.577Z,2.03
2019-03-10T03:42:16.817Z,2.03
2019-03-10T03:44:44.017Z,2.10
2019-03-10T03:47:11.376Z,2.50
2019-03-10T03:49:38.567Z,1.83
2019-03-10T03:52:05.793Z,1.83
2019-03-10T03:54:32.980Z,2.20
2019-03-10T03:57:00.213Z,2.13
2019-03-10T03:59:27.436Z,2.17
2019-03-10T04:02:09.525Z,2.40
2019-03-10T04:04:36.761Z,2.47
2019-03-10T04:07:04.028Z,3.27
2019-03-10T04:09:31.257Z,1.83
2019-03-10T04:11:58.494Z,2.30
2019-03-10T04:14:25.735Z,1.83
2019-03-10T04:16:52.935Z,1.83
2019-03-10T04:19:20.137Z,2.23
2019-03-10T04:21:47.387Z,1.57
2019-03-10T04:24:14.574Z,1.90
2019-03-10T04:26:41.854Z,2.17
2019-03-10T04:29:09.105Z,2.03
2019-03-10T04:31:36.322Z,1.97
2019-03-10T04:34:03.591Z,1.80
2019-03-10T04:36:30.823Z,2.17
2019-03-10T04:38:58.035Z,1.87
2019-03-10T04:41:25.272Z,1.97
2019-03-10T04:43:52.551Z,1.60
2019-03-10T04:46:19.765Z,1.97
2019-03-10T04:48:47.055Z,1.53
2019-03-10T04:51:14.216Z,2.20
2019-03-10T04:53:41.457Z,1.63
2019-03-10T04:56:19.475Z,2.17
2019-03-10T04:58:49.281Z,2.07
2019-03-10T05:01:16.488Z,2.20
2019-03-10T05:03:43.687Z,1.50
2019-03-10T05:06:10.927Z,1.87
2019-03-10T05:08:38.163Z,2.20
2019-03-10T05:11:05.366Z,1.70
2019-03-10T05:13:32.596Z,1.50
2019-03-10T05:15:59.838Z,1.83
2019-03-10T05:18:27.082Z,1.70
2019-03-10T05:20:54.275Z,1.93
2019-03-10T05:23:31.710Z,2.33
2019-03-10T05:25:58.990Z,1.90
2019-03-10T05:28:26.477Z,1.97
2019-03-10T05:30:53.713Z,2.17
2019-03-10T05:33:21.002Z,1.70
2019-03-10T05:35:48.262Z,2.00
2019-03-10T05:38:15.473Z,1.70
2019-03-10T05:40:42.688Z,2.10
2019-03-10T05:43:09.893Z,1.47
2019-03-10T05:45:37.100Z,1.90
2019-03-10T05:48:04.287Z,1.83
2019-03-10T05:50:31.501Z,2.00
2019-03-10T05:53:00.689Z,1.80
2019-03-10T05:55:27.843Z,1.60
2019-03-10T05:57:55.017Z,1.53
2019-03-10T06:00:22.237Z,2.20
2019-03-10T06:02:49.499Z,1.77
2019-03-10T06:05:16.715Z,1.97
2019-03-10T06:07:43.933Z,1.60
2019-03-10T06:10:11.158Z,1.60
2019-03-10T06:12:38.392Z,1.80
2019-03-10T06:15:05.712Z,1.60
2019-03-10T06:17:32.919Z,1.67
2019-03-10T06:20:00.380Z,1.73
2019-03-10T06:22:27.678Z,2.00
2019-03-10T06:24:54.909Z,1.50
2019-03-10T06:27:22.178Z,1.90
2019-03-10T06:29:49.750Z,1.50
2019-03-10T06:32:16.926Z,1.63
2019-03-10T06:34:44.197Z,1.70
2019-03-10T06:37:11.423Z,1.90
2019-03-10T06:39:38.631Z,1.80
2019-03-10T06:42:05.982Z,1.47
2019-03-10T06:44:33.207Z,1.33
2019-03-10T06:47:00.401Z,1.60
2019-03-10T06:49:27.636Z,2.03
2019-03-10T06:51:54.854Z,1.70
2019-03-10T06:54:22.090Z,1.40
2019-03-10T06:56:49.354Z,1.30
2019-03-10T06:59:16.513Z,1.70
2019-03-10T07:01:43.759Z,1.60
2019-03-10T07:04:10.982Z,1.70
2019-03-10T07:06:38.439Z,2.00
2019-03-10T07:09:05.725Z,1.90
2019-03-10T07:11:32.967Z,1.37
2019-03-10T07:14:00.195Z,1.93
2019-03-10T07:16:27.421Z,1.30
2019-03-10T07:18:54.664Z,1.77
2019-03-10T07:21:21.868Z,2.00
2019-03-10T07:23:49.100Z,1.70
2019-03-10T07:26:16.287Z,1.70
2019-03-10T07:28:49.294Z,1.63
2019-03-10T07:31:29.125Z,1.43
2019-03-10T07:34:03.881Z,1.70
2019-03-10T07:36:53.248Z,1.40
2019-03-10T07:39:40.007Z,1.97
2019-03-10T07:42:32.861Z,1.70
2019-03-10T07:45:22.487Z,2.00
2019-03-10T07:48:07.908Z,1.70
2019-03-10T07:50:57.112Z,1.47
2019-03-10T07:53:31.653Z,1.63
2019-03-10T07:56:11.399Z,1.30
2019-03-10T07:58:49.730Z,1.40
2019-03-10T08:01:31.363Z,2.00
2019-03-10T08:04:14.201Z,1.70
2019-03-10T08:06:58.787Z,1.80
2019-03-10T08:09:42.600Z,1.80
2019-03-10T08:12:35.534Z,1.90
2019-03-10T08:15:28.707Z,1.80
2019-03-10T08:18:18.127Z,1.90
2019-03-10T08:21:03.616Z,1.70
2019-03-10T08:23:45.572Z,1.60
2019-03-10T08:26:35.252Z,1.37
2019-03-10T08:29:37.271Z,1.70
2019-03-10T08:32:12.613Z,1.60
2019-03-10T08:35:02.211Z,1.33
2019-03-10T08:37:55.047Z,1.57
2019-03-10T08:40:56.729Z,1.40
2019-03-10T08:43:58.568Z,1.67
2019-03-10T08:46:42.883Z,2.00
2019-03-10T08:49:45.634Z,1.97
2019-03-10T08:52:16.832Z,1.70
2019-03-10T08:54:50.717Z,1.60
2019-03-10T08:57:40.509Z,1.77
2019-03-10T09:00:31.017Z,1.80
2019-03-10T09:03:08.402Z,1.73
2019-03-10T09:05:58.190Z,1.60
2019-03-10T09:08:50.716Z,1.37
2019-03-10T09:11:35.980Z,1.90
2019-03-10T09:14:21.554Z,1.87
2019-03-10T09:17:08.290Z,1.53
2019-03-10T09:19:47.615Z,1.37
2019-03-10T09:22:37.402Z,2.07
2019-03-10T09:25:11.998Z,1.77
2019-03-10T09:27:56.383Z,1.93
2019-03-10T09:30:46.211Z,1.63
2019-03-10T09:33:30.547Z,1.67
2019-03-10T09:36:09.527Z,1.67
2019-03-10T09:38:56.274Z,1.80
2019-03-10T09:41:41.561Z,1.37
2019-03-10T09:44:28.300Z,2.03
2019-03-10T09:47:04.140Z,1.40
2019-03-10T09:49:53.594Z,1.50
2019-03-10T09:52:43.299Z,1.90
2019-03-10T09:55:36.095Z,1.43
2019-03-10T09:58:35.032Z,1.50
2019-03-10T10:01:30.630Z,1.87
2019-03-10T10:04:17.418Z,1.87
2019-03-10T10:06:51.297Z,1.50
2019-03-10T10:09:43.410Z,1.70
2019-03-10T10:12:33.069Z,1.43
2019-03-10T10:15:25.860Z,1.30
2019-03-10T10:18:18.267Z,1.60
2019-03-10T10:21:10.747Z,2.00
2019-03-10T10:23:57.258Z,1.57
2019-03-10T10:26:46.846Z,1.50
2019-03-10T10:29:36.520Z,1.53
2019-03-10T10:32:32.227Z,1.37
2019-03-10T10:35:19.002Z,1.70
2019-03-10T10:38:05.530Z,1.60
2019-03-10T10:41:03.221Z,1.83
2019-03-10T10:43:42.527Z,1.83
2019-03-10T10:46:35.219Z,1.40
2019-03-10T10:49:31.158Z,1.30
2019-03-10T10:52:10.017Z,1.67
2019-03-10T10:54:56.731Z,1.40
2019-03-10T10:57:37.140Z,1.73
2019-03-10T11:00:14.972Z,1.27
2019-03-10T11:03:00.146Z,1.87
2019-03-10T11:05:44.302Z,1.57
2019-03-10T11:08:25.984Z,1.70
2019-03-10T11:11:20.687Z,1.80
2019-03-10T11:14:25.603Z,1.20
2019-03-10T11:17:18.137Z,1.47
2019-03-10T11:20:01.732Z,1.50
2019-03-10T11:22:40.937Z,1.70
2019-03-10T11:25:27.706Z,1.43
2019-03-10T11:28:09.984Z,1.50
2019-03-10T11:30:55.274Z,1.60
2019-03-10T11:33:44.958Z,1.60
2019-03-10T11:36:34.637Z,1.47
2019-03-10T11:39:17.805Z,1.17
2019-03-10T11:41:57.068Z,1.53
2019-03-10T11:44:55.881Z,1.70
2019-03-10T11:47:28.776Z,1.67
2019-03-10T11:50:10.535Z,1.23
2019-03-10T11:52:55.067Z,1.40
2019-03-10T11:55:47.801Z,1.60
2019-03-10T11:58:32.590Z,1.43
2019-03-10T12:01:22.003Z,1.50
2019-03-10T12:04:21.007Z,1.30
2019-03-10T12:07:07.756Z,1.37
2019-03-10T12:09:34.977Z,1.27
2019-03-10T12:12:02.195Z,1.40
2019-03-10T12:14:29.376Z,1.20
2019-03-10T12:16:56.564Z,1.47
2019-03-10T12:19:23.787Z,1.13
2019-03-10T12:21:50.970Z,1.90
2019-03-10T12:24:18.175Z,1.63
2019-03-10T12:26:45.408Z,1.50
2019-03-10T12:29:12.659Z,1.43
2019-03-10T12:31:39.826Z,1.40
2019-03-10T12:34:07.037Z,1.43
2019-03-10T12:36:34.281Z,1.30
2019-03-10T12:39:01.551Z,1.40
2019-03-10T12:41:28.762Z,1.63
2019-03-10T12:43:55.972Z,1.70
2019-03-10T12:46:23.139Z,1.33
2019-03-10T12:48:50.344Z,1.40
2019-03-10T12:51:17.545Z,1.63
2019-03-10T12:53:44.765Z,1.50
2019-03-10T12:56:11.979Z,1.40
2019-03-10T12:58:39.171Z,1.50
2019-03-10T13:01:06.955Z,1.43
2019-03-10T13:03:34.259Z,1.47
2019-03-10T13:06:01.675Z,1.40
2019-03-10T13:08:28.922Z,1.27
2019-03-10T13:10:56.107Z,1.40
2019-03-10T13:13:23.340Z,1.23
2019-03-10T13:15:50.615Z,1.00
2019-03-10T13:18:17.804Z,1.47
2019-03-10T13:20:45.074Z,1.23
2019-03-10T13:23:12.266Z,1.53
2019-03-10T13:25:39.463Z,1.50
2019-03-10T13:28:06.655Z,1.43
2019-03-10T13:30:33.933Z,1.43
2019-03-10T13:33:01.152Z,1.13
2019-03-10T13:35:28.333Z,1.30
2019-03-10T13:37:55.651Z,1.30
2019-03-10T13:40:22.811Z,1.70
2019-03-10T13:42:50.039Z,1.30
2019-03-10T13:45:17.250Z,1.47
2019-03-10T13:47:44.461Z,1.30
2019-03-10T13:50:11.839Z,1.20
2019-03-10T13:52:39.073Z,1.13
2019-03-10T13:55:06.529Z,1.40
2019-03-10T13:57:33.729Z,1.67
2019-03-10T14:00:01.026Z,1.17
2019-03-10T14:02:28.236Z,1.83
2019-03-10T14:04:55.432Z,1.30
2019-03-10T14:07:22.691Z,1.20
2019-03-10T14:09:49.878Z,1.20
2019-03-10T14:12:17.109Z,1.30
2019-03-10T14:14:44.342Z,1.60
2019-03-10T14:17:11.517Z,1.33
2019-03-10T14:19:38.747Z,1.30
2019-03-10T14:22:05.974Z,1.53
2019-03-10T14:24:33.157Z,1.23
2019-03-10T14:27:00.438Z,1.30
2019-03-10T14:29:27.622Z,1.60
2019-03-10T14:31:54.876Z,1.30
2019-03-10T14:34:22.120Z,1.40
2019-03-10T14:36:49.390Z,1.20
2019-03-10T14:39:16.615Z,1.40
2019-03-10T14:41:43.802Z,1.10
2019-03-10T14:44:11.046Z,1.70
2019-03-10T14:46:38.222Z,1.10
2019-03-10T14:49:05.554Z,1.13
2019-03-10T14:51:32.791Z,1.30
2019-03-10T14:54:00.004Z,1.40
2019-03-10T14:56:27.525Z,1.70
2019-03-10T14:58:54.731Z,1.40
2019-03-10T15:01:22.436Z,1.10
2019-03-10T15:03:49.826Z,1.30
2019-03-10T15:06:17.084Z,1.20
2019-03-10T15:08:46.354Z,1.10
2019-03-10T15:11:13.517Z,1.10
2019-03-10T15:13:40.739Z,1.13
2019-03-10T15:16:07.904Z,1.30
2019-03-10T15:18:35.106Z,1.20
2019-03-10T15:21:02.323Z,1.30
2019-03-10T15:23:29.550Z,1.30
2019-03-10T15:25:56.797Z,1.20
2019-03-10T15:28:24.110Z,1.10
2019-03-10T15:30:51.303Z,1.40
2019-03-10T15:33:18.861Z,1.07
2019-03-10T15:35:46.088Z,1.30
2019-03-10T15:38:13.277Z,1.53
2019-03-10T15:40:40.535Z,1.30
2019-03-10T15:43:07.727Z,1.13
2019-03-10T15:45:35.011Z,1.20
2019-03-10T15:48:02.192Z,1.03
2019-03-10T15:50:29.421Z,1.23
2019-03-10T15:52:56.622Z,1.00
2019-03-10T15:55:23.878Z,1.10
2019-03-10T15:57:51.179Z,1.10
2019-03-10T16:00:18.894Z,1.27
2019-03-10T16:02:46.093Z,1.00
2019-03-10T16:05:13.293Z,1.20
2019-03-10T16:07:41.462Z,1.10
2019-03-10T16:10:09.030Z,1.00
2019-03-10T16:12:36.235Z,1.40
2019-03-10T16:15:03.928Z,1.17
2019-03-10T16:17:31.151Z,1.70
2019-03-10T16:19:58.335Z,1.23
2019-03-10T16:22:25.587Z,1.30
2019-03-10T16:24:52.804Z,1.27
2019-03-10T16:27:20.021Z,1.40
2019-03-10T16:29:47.226Z,1.20
2019-03-10T16:32:14.521Z,1.20
2019-03-10T16:34:41.707Z,1.10
2019-03-10T16:37:08.923Z,1.10
2019-03-10T16:39:36.120Z,1.30
2019-03-10T16:42:03.371Z,1.40
2019-03-10T16:44:30.551Z,1.20
2019-03-10T16:46:57.888Z,1.60
2019-03-10T16:49:25.056Z,1.23
2019-03-10T16:51:52.261Z,1.30
2019-03-10T16:54:19.532Z,1.40
2019-03-10T16:56:46.740Z,1.10
2019-03-10T16:59:14.007Z,1.00
2019-03-10T17:01:41.234Z,1.00
2019-03-10T17:04:08.474Z,1.53
2019-03-10T17:06:35.680Z,1.00
2019-03-10T17:09:14.566Z,0.87
2019-03-10T17:11:41.823Z,1.00
2019-03-10T17:14:09.022Z,1.13
2019-03-10T17:16:36.240Z,1.10
2019-03-10T17:19:03.441Z,1.27
2019-03-10T17:21:30.761Z,1.20
2019-03-10T17:23:57.927Z,1.30
2019-03-10T17:26:25.127Z,1.23
2019-03-10T17:28:52.403Z,1.53
2019-03-10T17:31:19.639Z,1.13
2019-03-10T17:33:46.830Z,1.13
2019-03-10T17:36:14.072Z,0.97
2019-03-10T17:38:41.287Z,1.70
2019-03-10T17:41:08.479Z,1.10
2019-03-10T17:43:35.819Z,1.17
2019-03-10T17:46:03.014Z,1.17
2019-03-10T17:48:30.226Z,1.37
2019-03-10T17:50:57.438Z,1.23
2019-03-10T17:53:24.661Z,1.43
2019-03-10T17:55:52.000Z,1.30
2019-03-10T17:58:19.198Z,1.40
2019-03-10T18:00:46.395Z,1.20
2019-03-10T18:03:13.625Z,1.10
2019-03-10T18:05:40.858Z,1.30
2019-03-10T18:08:08.075Z,1.77
2019-03-10T18:10:35.314Z,1.40
2019-03-10T18:13:02.530Z,1.30
2019-03-10T18:15:29.849Z,1.20
2019-03-10T18:17:57.055Z,1.23
2019-03-10T18:20:24.250Z,1.00
2019-03-10T18:22:51.480Z,1.20
2019-03-10T18:25:18.673Z,1.47
2019-03-10T18:27:46.205Z,1.30
2019-03-10T18:30:15.260Z,1.50
2019-03-10T18:32:42.461Z,1.20
2019-03-10T18:35:12.673Z,1.27
2019-03-10T18:37:39.841Z,1.53
2019-03-10T18:40:10.721Z,1.10
2019-03-10T18:42:38.029Z,1.60
2019-03-10T18:45:05.428Z,1.57
2019-03-10T18:47:32.622Z,1.23
2019-03-10T18:50:00.008Z,1.40
2019-03-10T18:52:27.215Z,1.70
2019-03-10T18:54:54.475Z,1.27
2019-03-10T18:57:21.777Z,1.83
2019-03-10T18:59:48.980Z,1.63
2019-03-10T19:02:16.204Z,1.60
2019-03-10T19:04:43.498Z,1.43
2019-03-10T19:07:10.702Z,1.20
2019-03-10T19:09:37.934Z,1.10
2019-03-10T19:12:05.159Z,1.30
2019-03-10T19:14:32.381Z,1.30
2019-03-10T19:16:59.655Z,1.20
2019-03-10T19:19:26.880Z,1.60
2019-03-10T19:21:54.283Z,1.20
2019-03-10T19:24:21.494Z,1.10
2019-03-10T19:26:48.687Z,1.50
2019-03-10T19:29:16.034Z,1.23
2019-03-10T19:31:43.202Z,1.33
2019-03-10T19:34:10.417Z,1.20
2019-03-10T19:36:37.662Z,1.20
2019-03-10T19:39:05.884Z,1.07
2019-03-10T19:41:33.067Z,1.23
2019-03-10T19:44:00.310Z,1.20
2019-03-10T19:46:27.636Z,1.50
2019-03-10T19:48:54.850Z,1.40
2019-03-10T19:51:22.044Z,1.77
2019-03-10T19:53:49.247Z,1.30
2019-03-10T19:56:16.466Z,1.20
2019-03-10T19:58:43.670Z,1.30
2019-03-10T20:01:10.887Z,1.67
2019-03-10T20:03:38.098Z,1.30
2019-03-10T20:06:05.341Z,1.40
2019-03-10T20:08:32.755Z,1.47
2019-03-10T20:10:59.938Z,1.00
2019-03-10T20:13:27.119Z,0.93
2019-03-10T20:15:54.330Z,1.20
2019-03-10T20:18:21.555Z,1.60
2019-03-10T20:20:48.824Z,1.63
2019-03-10T20:23:16.000Z,1.20
2019-03-10T20:25:43.164Z,1.50
2019-03-10T20:28:10.384Z,1.40
2019-03-10T20:30:37.678Z,1.47
2019-03-10T20:33:05.010Z,2.00
2019-03-10T20:35:33.753Z,1.90
2019-03-10T20:38:01.063Z,1.40
2019-03-10T20:40:28.355Z,1.70
2019-03-10T20:42:55.579Z,1.30
2019-03-10T20:45:24.515Z,1.63
2019-03-10T20:47:51.917Z,1.57
2019-03-10T20:50:19.171Z,1.83
2019-03-10T20:52:46.359Z,2.17
2019-03-10T20:55:13.749Z,1.90
2019-03-10T20:57:40.983Z,1.80
2019-03-10T21:00:11.200Z,2.40
2019-03-10T21:02:38.498Z,1.50
2019-03-10T21:05:07.212Z,2.20
2019-03-10T21:07:34.365Z,1.47
2019-03-10T21:10:01.564Z,1.90
2019-03-10T21:12:39.468Z,2.07
2019-03-10T21:14:57.971Z,1.43
2019-03-10T21:17:25.178Z,1.60
2019-03-10T21:19:52.517Z,1.70
2019-03-10T21:22:20.997Z,1.70
2019-03-10T21:24:48.467Z,1.40
2019-03-10T21:27:15.731Z,1.63
2019-03-10T21:29:43.025Z,1.60
2019-03-10T21:32:10.191Z,1.27
2019-03-10T21:34:37.543Z,1.80
2019-03-10T21:37:09.015Z,1.73
2019-03-10T21:39:36.264Z,1.97
2019-03-10T21:42:03.526Z,1.43
2019-03-10T21:44:30.762Z,1.70
2019-03-10T21:46:57.944Z,2.43
2019-03-10T21:49:25.143Z,2.30
2019-03-10T21:51:52.363Z,1.50
2019-03-10T21:54:19.567Z,1.60
2019-03-10T21:56:46.792Z,1.63
2019-03-10T21:59:14.064Z,1.33
2019-03-10T22:01:41.282Z,1.13
2019-03-10T22:04:08.540Z,1.33
2019-03-10T22:06:35.763Z,1.63
2019-03-10T22:09:04.708Z,1.73
2019-03-10T22:11:32.140Z,1.77
2019-03-10T22:13:59.366Z,1.77
2019-03-10T22:16:26.566Z,1.83
2019-03-10T22:18:53.761Z,1.50
2019-03-10T22:21:21.007Z,1.13
2019-03-10T22:23:58.449Z,2.27
2019-03-10T22:26:17.354Z,1.40
2019-03-10T22:28:44.510Z,1.43
2019-03-10T22:31:11.765Z,1.60
2019-03-10T22:33:38.962Z,1.20
2019-03-10T22:36:06.221Z,1.50
2019-03-10T22:38:33.491Z,1.57
2019-03-10T22:41:00.722Z,1.47
2019-03-10T22:43:27.925Z,1.50
2019-03-10T22:45:55.203Z,2.20
2019-03-10T22:48:22.399Z,1.60
2019-03-10T22:50:49.743Z,1.30
2019-03-10T22:53:16.952Z,1.70
2019-03-10T22:55:44.179Z,1.83
2019-03-10T22:58:11.358Z,1.50
2019-03-10T23:00:45.864Z,1.40
2019-03-10T23:03:13.110Z,1.60
2019-03-10T23:05:41.567Z,1.43
2019-03-10T23:08:09.103Z,1.80
2019-03-10T23:10:36.320Z,1.30
2019-03-10T23:13:03.545Z,1.87
2019-03-10T23:15:30.774Z,1.50
2019-03-10T23:17:57.934Z,1.47
2019-03-10T23:20:25.169Z,1.20
2019-03-10T23:22:52.351Z,1.47
2019-03-10T23:25:19.610Z,1.30
2019-03-10T23:27:47.032Z,1.10
2019-03-10T23:30:14.308Z,1.50
2019-03-10T23:32:41.598Z,1.23
2019-03-10T23:35:08.941Z,1.30
2019-03-10T23:37:36.126Z,1.50
2019-03-10T23:40:03.803Z,1.50
2019-03-10T23:42:31.189Z,1.50
2019-03-10T23:44:58.428Z,1.80
2019-03-10T23:47:25.702Z,1.30
2019-03-10T23:49:52.996Z,1.40
2019-03-10T23:52:20.179Z,1.77
2019-03-10T23:54:47.440Z,1.43
2019-03-10T23:57:14.679Z,1.20
2019-03-10T23:59:41.920Z,1.10
